METAR Data
IDs: Format: Raw Decoded Include TAF

Data at: 0009 UTC 26 Oct 2021

PASN 252353Z AUTO 33025G30KT 10SM FEW035 BKN055 OVC070 02/M05 A2968 RMK AO2 PK WND 33030/2352 SNB32E41 SLP051 P0000 60003 T00171050 10022 21011 53007 TSNO $
PASN 252253Z AUTO 34022G26KT 10SM SCT040 BKN050 BKN065 02/M04 A2967 RMK AO2 PK WND 34031/2206 SLP048 T00221044 TSNO $
PASN 252153Z AUTO 34018G24KT 9SM SCT028 BKN043 01/M03 A2966 RMK AO2 PK WND 34027/2120 SNE50 SLP044 P0003 T00061028 TSNO $
PASN 252148Z AUTO 34017KT 8SM -SN SCT021 BKN027 BKN043 01/M02 A2966 RMK AO2 PK WND 34027/2120 P0003 TSNO $
PASN 252140Z AUTO 31015G20KT 2 1/2SM -SN BKN022 BKN029 OVC044 00/M03 A2966 RMK AO2 PK WND 34027/2120 P0003 T00001028 TSNO $
PASN 252132Z AUTO 32011KT 1SM -SN BR BKN016 BKN030 OVC042 M01/M03 A2966 RMK AO2 PK WND 34027/2120 P0003 T10111033 TSNO $
PASN 252123Z AUTO 34017G27KT 1/2SM SN FEW008 BKN014 OVC035 M01/M03 A2966 RMK AO2 PK WND 34027/2120 P0002 T10061033 TSNO $
PASN 252121Z AUTO 33022G27KT 1/2SM SN FEW011 BKN016 OVC037 00/M03 A2966 RMK AO2 PK WND 34027/2120 P0002 T00001033 TSNO $
PASN 252111Z AUTO 34020G25KT 1 1/4SM -SN FEW013 BKN021 OVC033 00/M03 A2966 RMK AO2 VIS 3/4V3 P0001 T00001033 TSNO $
PASN 252103Z AUTO 34015G24KT 2SM -SN FEW013 BKN025 OVC036 00/M04 A2966 RMK AO2 P0000 T00001039 TSNO $
PASN 252053Z AUTO 31016G21KT 7SM -SN SCT034 BKN044 OVC050 01/M04 A2965 RMK AO2 SNB17E29B45 SLP041 P0000 60000 T00061044 53016 TSNO $
PASN 251953Z AUTO 35014KT 10SM BKN060 01/M06 A2963 RMK AO2 PK WND 35027/1858 SLP036 T00111061 TSNO $
PASN 251853Z AUTO 35019G27KT 10SM FEW038 BKN055 01/M06 A2961 RMK AO2 PK WND 35029/1805 SNE03 SLP029 P0000 T00061056 TSNO $
PASN 251815Z AUTO 34019G26KT 10SM SCT028 OVC041 01/M04 A2960 RMK AO2 PK WND 35029/1805 SNE03 P0000 T00061044 TSNO $
PASN 251753Z AUTO 33013G21KT 5SM -SN FEW022 BKN026 OVC055 00/M04 A2960 RMK AO2 PK WND 33028/1739 SNB41 SLP024 P0000 60000 T00001039 10011 20000 53019 TSNO $
PASN 251653Z AUTO 35013KT 10SM FEW035 OVC050 01/M06 A2958 RMK AO2 SLP016 T00061056 TSNO $
PASN 251553Z AUTO 33014KT 10SM FEW036 OVC050 01/M05 A2956 RMK AO2 SLP010 T00061050 TSNO $
PASN 251453Z AUTO 34014KT 10SM FEW035 OVC046 01/M05 A2954 RMK AO2 SLP005 T00061050 51010 TSNO $
PASN 251353Z AUTO 35016KT 10SM SCT033 OVC050 01/M04 A2954 RMK AO2 SLP003 T00061044 TSNO $
PASN 251253Z AUTO 34018G26KT 10SM BKN036 BKN043 OVC050 01/M04 A2952 RMK AO2 PK WND 34026/1247 SLP998 T00111044 TSNO $
PASN 251153Z AUTO 36015KT 10SM FEW036 OVC055 01/M06 A2951 RMK AO2 SLP995 60000 T00111056 10011 20006 51009 TSNO $
PASN 251053Z AUTO 35015KT 10SM OVC055 01/M06 A2951 RMK AO2 SLP993 T00061056 TSNO $
PASN 250953Z AUTO 35014KT 10SM FEW036 OVC055 01/M06 A2950 RMK AO2 SLP991 T00061056 TSNO $
PASN 250853Z AUTO 36016G22KT 10SM FEW033 OVC050 01/M05 A2949 RMK AO2 PK WND 01027/0755 SLP986 60000 T00061050 400221033 52016 TSNO $
PASN 250753Z AUTO 01022G27KT 10SM BKN034 OVC046 01/M04 A2947 RMK AO2 PK WND 01029/0741 SLP980 T00111044 TSNO $
PASN 250653Z AUTO 02015G26KT 10SM OVC034 01/M03 A2946 RMK AO2 PK WND 02028/0627 SNB17E26 SLP975 P0000 T00111033 TSNO $
PASN 250604Z AUTO 03017G25KT 10SM SCT028 BKN033 OVC041 01/M03 A2944 RMK AO2 T00111028 TSNO $
PASN 250553Z AUTO 03014G24KT 10SM BKN029 BKN037 OVC047 01/M03 A2944 RMK AO2 PK WND 03027/0533 SNB0459E32 SLP970 P0000 60000 T00111028 10022 20006 53005 TSNO $
PASN 250453Z AUTO 03015KT 10SM SCT029 BKN036 OVC043 02/M03 A2943 RMK AO2 SNB33E42 SLP968 P0000 T00171028 TSNO $
PASN 250353Z AUTO 03015G21KT 10SM FEW035 BKN042 OVC050 02/M03 A2943 RMK AO2 SNB05E45 SLP966 P0000 T00171033 TSNO $
PASN 250253Z AUTO 03015KT 10SM FEW037 OVC049 02/M03 A2942 RMK AO2 SLP965 60000 T00171033 56007 TSNO $
PASN 250153Z AUTO 05016G23KT 10SM SCT035 OVC050 02/M03 A2943 RMK AO2 SNE0058 SLP965 P0000 T00171033 TSNO $
PASN 250053Z AUTO 06015KT 6SM -SN FEW037 OVC048 02/M03 A2943 RMK AO2 SNB48 SLP967 P0000 T00171033 TSNO $
PASN 242353Z AUTO 06016G20KT 10SM BKN035 OVC047 02/M03 A2945 RMK AO2 SLP972 60000 T00221028 10022 20006 58027 TSNO $
PASN 242253Z AUTO 07017KT 10SM BKN032 OVC045 02/M02 A2947 RMK AO2 RAB2158E07 SLP981 P0000 T00221022 TSNO $
PASN 242153Z AUTO 08017KT 10SM SCT028 OVC036 02/M02 A2951 RMK AO2 SLP992 T00171022 TSNO $
PASN 242053Z AUTO 09014KT 10SM FEW035 OVC047 02/M03 A2953 RMK AO2 SNE05 SLP999 P0000 60000 T00221028 56028 TSNO $
PASN 242006Z AUTO 09015G20KT 9SM SCT027 OVC035 02/M02 A2955 RMK AO2 SNE05 P0000 T00171017 TSNO $
PASN 241959Z AUTO 09008KT 2SM -SN FEW022 BKN027 OVC033 01/M02 A2955 RMK AO2 P0000 T00111017 TSNO $
PASN 241953Z AUTO 12011KT 1 3/4SM -SN BR FEW023 BKN033 OVC045 01/M02 A2955 RMK AO2 SNB49 SLP009 P0000 T00061017 TSNO $
PASN 241853Z AUTO 07009KT 10SM OVC050 01/M02 A2958 RMK AO2 SLP017 T00061022 TSNO $
PASN 241753Z AUTO 07009KT 10SM SCT034 OVC049 01/M03 A2961 RMK AO2 SLP027 60000 T00061028 10011 21017 TSNO $
PASN 241653Z AUTO 04006KT 10SM BKN045 M01/M04 A2964 RMK AO2 SLP039 T10061039 TSNO $
PASN 241553Z AUTO 01007KT 00/M03 A2966 RMK AO2 SLP045 T00001033 TSNO $
PASN 241453Z AUTO 05006KT 10SM OVC047 00/M03 A2969 RMK AO2 SLP055 60000 T00001028 58032 TSNO
PASN 241353Z AUTO 04006KT 10SM OVC043 M01/M03 A2973 RMK AO2 SNB25E35 SLP068 P0000 T10061028 TSNO
PASN 241253Z AUTO 00000KT 10SM OVC047 01/M02 A2976 RMK AO2 SLP079 T00061022 TSNO